Walterboro Municipal Airport

About
Name: Walterboro Municipal Airport
Identifier:  RBW/KRBW
Local Time:  20. Aug 10:23 EDT
Location
Flights per Day
0 flights
Distance: 391km (243mi)
Punctuality
0% (0 flights per day delayed)
Delay Average: 737 minutes
Current Weather
 28 C (Humidity: 74%)
  6kt (11km/h / 6mph) from 260°
  16km (10 mi.)
 
 METAR KRBW 201355Z AUTO 26006KT 10SM CLR 28/23 A3016 RMK AO2

Current Flights

Departures
Number Departure To Airline
Arrivals
Number Arrival From Airline

Current Delays

Departures
N/A
Arrivals
N/A

Destinations

Top Destinations
Airport Flights
per week
Seats
per week
  Charleston (CHS) 1 - 0 0
  Aiken (AIK) 0 - 0 0
  Troy (TOI) 0 - 0 0
  Tallahassee (TLH) 0 - 0 0
  Beaufort (BFT) 0 - 0 0
  Vero Beach (VRB) 0 - 0 0
  Wilmington (ILG) 0 - 0 0
  Miami (TMB) 0 - 0 0
  Orangeburg (OGB) 0 - 0 0
  Savannah (SAV) 0 - 0 0
  Akron (CAK) 0 - 0 0

Airlines & Planes

Top Airlines
Airline Flights
per Day
Seats
per Day
Nordwind Airlines 0 -
  Novair 0 -
Jet Charter Inc ( Franklin Lakes Nj ) 0 -
  Nolinor Aviation 0 -
Gama Aviation 0 -
  National Airlines 0 -
NetJets 0 0
Top Plane Types
Model Flights Seats
Piper PA28-181 0.2/day - 0
Cessna C56X 0.1/day - 0
Beech 58 0.1/day - 0
Pilatus PC-12 0.0/day - 0
Embraer Phenom 300 0.0/day - -0.06666666666666667